sensor_id;sensor_type;location;lat;lon;timestamp;pressure;altitude;pressure_sealevel;temperature;humidity
8585;BME280;7180;52.742;11.420;2023-03-01T00:01:11;102639.47;;;-4.47;100.00
8585;BME280;7180;52.742;11.420;2023-03-01T00:03:37;102642.97;;;-4.45;100.00
8585;BME280;7180;52.742;11.420;2023-03-01T00:06:03;102649.09;;;-4.41;100.00
8585;BME280;7180;52.742;11.420;2023-03-01T00:08:30;102668.81;;;-4.40;100.00
8585;BME280;7180;52.742;11.420;2023-03-01T00:11:08;102665.09;;;-4.48;100.00
8585;BME280;7180;52.742;11.420;2023-03-01T00:13:35;102663.47;;;-4.46;100.00
8585;BME280;7180;52.742;11.420;2023-03-01T00:16:03;102656.47;;;-4.50;100.00
8585;BME280;7180;52.742;11.420;2023-03-01T00:18:28;102649.56;;;-4.51;100.00
8585;BME280;7180;52.742;11.420;2023-03-01T00:20:55;102647.75;;;-4.55;100.00
8585;BME280;7180;52.742;11.420;2023-03-01T00:23:22;102653.88;;;-4.52;100.00
8585;BME280;7180;52.742;11.420;2023-03-01T00:25:47;102654.72;;;-4.51;100.00
8585;BME280;7180;52.742;11.420;2023-03-01T00:28:13;102654.66;;;-4.53;100.00
8585;BME280;7180;52.742;11.420;2023-03-01T00:30:39;102657.19;;;-4.54;100.00
8585;BME280;7180;52.742;11.420;2023-03-01T00:33:04;102664.22;;;-4.49;100.00
8585;BME280;7180;52.742;11.420;2023-03-01T00:35:32;102658.16;;;-4.51;100.00
8585;BME280;7180;52.742;11.420;2023-03-01T00:37:57;102663.94;;;-4.56;100.00
8585;BME280;7180;52.742;11.420;2023-03-01T00:40:27;102663.16;;;-4.55;100.00
8585;BME280;7180;52.742;11.420;2023-03-01T00:42:53;102669.09;;;-4.56;100.00
8585;BME280;7180;52.742;11.420;2023-03-01T00:45:18;102659.66;;;-4.57;100.00
8585;BME280;7180;52.742;11.420;2023-03-01T00:47:43;102663.84;;;-4.59;100.00
8585;BME280;7180;52.742;11.420;2023-03-01T00:50:10;102661.09;;;-4.64;100.00
8585;BME280;7180;52.742;11.420;2023-03-01T00:52:36;102663.63;;;-4.65;100.00
8585;BME280;7180;52.742;11.420;2023-03-01T00:55:01;102663.69;;;-4.64;100.00
8585;BME280;7180;52.742;11.420;2023-03-01T00:57:26;102674.81;;;-4.63;100.00
8585;BME280;7180;52.742;11.420;2023-03-01T00:59:52;102655.91;;;-4.65;100.00
8585;BME280;7180;52.742;11.420;2023-03-01T01:02:18;102669.78;;;-4.60;100.00
8585;BME280;7180;52.742;11.420;2023-03-01T01:04:44;102659.41;;;-4.63;100.00
8585;BME280;7180;52.742;11.420;2023-03-01T01:07:09;102653.34;;;-4.65;100.00
8585;BME280;7180;52.742;11.420;2023-03-01T01:09:35;102661.06;;;-4.65;100.00
8585;BME280;7180;52.742;11.420;2023-03-01T01:12:01;102665.44;;;-4.63;100.00
8585;BME280;7180;52.742;11.420;2023-03-01T01:14:27;102671.47;;;-4.62;100.00
8585;BME280;7180;52.742;11.420;2023-03-01T01:16:52;102678.31;;;-4.61;100.00
8585;BME280;7180;52.742;11.420;2023-03-01T01:19:17;102663.34;;;-4.73;100.00
8585;BME280;7180;52.742;11.420;2023-03-01T01:21:43;102677.88;;;-4.73;100.00
8585;BME280;7180;52.742;11.420;2023-03-01T01:24:10;102671.97;;;-4.71;100.00
8585;BME280;7180;52.742;11.420;2023-03-01T01:26:36;102692.56;;;-4.69;100.00
8585;BME280;7180;52.742;11.420;2023-03-01T01:29:02;102691.66;;;-4.71;100.00
8585;BME280;7180;52.742;11.420;2023-03-01T01:31:28;102691.84;;;-4.65;100.00
8585;BME280;7180;52.742;11.420;2023-03-01T01:33:55;102677.88;;;-4.73;100.00
8585;BME280;7180;52.742;11.420;2023-03-01T01:36:20;102685.53;;;-4.75;100.00
8585;BME280;7180;52.742;11.420;2023-03-01T01:38:46;102665.41;;;-4.86;100.00
8585;BME280;7180;52.742;11.420;2023-03-01T01:41:12;102660.06;;;-4.92;100.00
8585;BME280;7180;52.742;11.420;2023-03-01T01:43:43;102671.53;;;-4.83;100.00
8585;BME280;7180;52.742;11.420;2023-03-01T01:46:31;102667.94;;;-4.88;100.00
8585;BME280;7180;52.742;11.420;2023-03-01T01:49:00;102671.31;;;-4.89;100.00
8585;BME280;7180;52.742;11.420;2023-03-01T01:51:34;102662.97;;;-4.83;100.00
8585;BME280;7180;52.742;11.420;2023-03-01T01:54:06;102644.66;;;-4.92;100.00
8585;BME280;7180;52.742;11.420;2023-03-01T01:56:33;102647.13;;;-4.95;100.00
8585;BME280;7180;52.742;11.420;2023-03-01T01:58:59;102643.81;;;-4.93;100.00
8585;BME280;7180;52.742;11.420;2023-03-01T02:01:26;102639.53;;;-4.92;100.00
8585;BME280;7180;52.742;11.420;2023-03-01T02:03:51;102616.94;;;-5.02;100.00
8585;BME280;7180;52.742;11.420;2023-03-01T02:06:22;102619.66;;;-4.98;100.00
8585;BME280;7180;52.742;11.420;2023-03-01T02:08:53;102620.44;;;-5.00;100.00
8585;BME280;7180;52.742;11.420;2023-03-01T02:11:22;102623.19;;;-4.94;100.00
8585;BME280;7180;52.742;11.420;2023-03-01T02:13:48;102613.78;;;-4.95;100.00
8585;BME280;7180;52.742;11.420;2023-03-01T02:16:15;102610.28;;;-4.97;100.00
8585;BME280;7180;52.742;11.420;2023-03-01T02:18:42;102613.88;;;-4.92;100.00
8585;BME280;7180;52.742;11.420;2023-03-01T02:23:59;102587.78;;;-5.04;100.00
8585;BME280;7180;52.742;11.420;2023-03-01T02:26:40;102590.41;;;-5.03;100.00
8585;BME280;7180;52.742;11.420;2023-03-01T02:29:07;102587.88;;;-5.01;100.00
8585;BME280;7180;52.742;11.420;2023-03-01T02:31:33;102585.38;;;-5.00;100.00
8585;BME280;7180;52.742;11.420;2023-03-01T02:34:20;102589.84;;;-4.94;100.00
8585;BME280;7180;52.742;11.420;2023-03-01T02:36:59;102581.94;;;-5.00;100.00
8585;BME280;7180;52.742;11.420;2023-03-01T02:39:59;102575.75;;;-5.05;100.00
8585;BME280;7180;52.742;11.420;2023-03-01T02:42:30;102579.75;;;-5.13;100.00
8585;BME280;7180;52.742;11.420;2023-03-01T02:44:57;102597.94;;;-5.07;100.00
8585;BME280;7180;52.742;11.420;2023-03-01T02:47:23;102597.81;;;-5.10;100.00
8585;BME280;7180;52.742;11.420;2023-03-01T02:49:48;102597.06;;;-5.08;100.00
8585;BME280;7180;52.742;11.420;2023-03-01T02:55:04;102605.69;;;-5.06;100.00
8585;BME280;7180;52.742;11.420;2023-03-01T02:57:33;102615.06;;;-5.06;100.00
8585;BME280;7180;52.742;11.420;2023-03-01T03:00:02;102619.38;;;-5.05;100.00
8585;BME280;7180;52.742;11.420;2023-03-01T03:02:32;102611.53;;;-5.10;100.00
8585;BME280;7180;52.742;11.420;2023-03-01T03:05:03;102613.75;;;-5.19;100.00
8585;BME280;7180;52.742;11.420;2023-03-01T03:07:28;102609.59;;;-5.15;100.00
8585;BME280;7180;52.742;11.420;2023-03-01T03:09:53;102609.59;;;-5.15;100.00
8585;BME280;7180;52.742;11.420;2023-03-01T03:12:19;102607.88;;;-5.16;100.00
8585;BME280;7180;52.742;11.420;2023-03-01T03:14:44;102595.63;;;-5.23;100.00
8585;BME280;7180;52.742;11.420;2023-03-01T03:17:09;102590.38;;;-5.27;100.00
8585;BME280;7180;52.742;11.420;2023-03-01T03:19:34;102594.50;;;-5.30;100.00
8585;BME280;7180;52.742;11.420;2023-03-01T03:22:00;102596.44;;;-5.24;100.00
8585;BME280;7180;52.742;11.420;2023-03-01T03:24:25;102590.38;;;-5.27;100.00
8585;BME280;7180;52.742;11.420;2023-03-01T03:26:50;102590.38;;;-5.27;100.00
8585;BME280;7180;52.742;11.420;2023-03-01T03:29:15;102585.88;;;-5.32;100.00
8585;BME280;7180;52.742;11.420;2023-03-01T03:31:41;102583.03;;;-5.40;100.00
8585;BME280;7180;52.742;11.420;2023-03-01T03:34:06;102586.53;;;-5.38;100.00
8585;BME280;7180;52.742;11.420;2023-03-01T03:36:31;102598.66;;;-5.34;100.00
8585;BME280;7180;52.742;11.420;2023-03-01T03:38:56;102600.28;;;-5.36;100.00
8585;BME280;7180;52.742;11.420;2023-03-01T03:41:22;102596.00;;;-5.37;100.00
8585;BME280;7180;52.742;11.420;2023-03-01T03:43:47;102591.66;;;-5.38;100.00
8585;BME280;7180;52.742;11.420;2023-03-01T03:46:13;102591.50;;;-5.42;100.00
8585;BME280;7180;52.742;11.420;2023-03-01T03:48:42;102594.06;;;-5.42;100.00
8585;BME280;7180;52.742;11.420;2023-03-01T03:51:13;102595.06;;;-5.39;100.00
8585;BME280;7180;52.742;11.420;2023-03-01T03:53:39;102593.38;;;-5.38;100.00
8585;BME280;7180;52.742;11.420;2023-03-01T03:56:05;102600.19;;;-5.39;100.00
8585;BME280;7180;52.742;11.420;2023-03-01T03:58:30;102598.59;;;-5.35;100.00
8585;BME280;7180;52.742;11.420;2023-03-01T04:00:56;102594.41;;;-5.33;100.00
8585;BME280;7180;52.742;11.420;2023-03-01T04:03:23;102612.56;;;-5.27;100.00
8585;BME280;7180;52.742;11.420;2023-03-01T04:05:50;102610.94;;;-5.25;100.00
8585;BME280;7180;52.742;11.420;2023-03-01T04:08:16;102597.91;;;-5.31;100.00
8585;BME280;7180;52.742;11.420;2023-03-01T04:10:44;102603.03;;;-5.31;100.00
8585;BME280;7180;52.742;11.420;2023-03-01T04:13:12;102605.66;;;-5.30;100.00
8585;BME280;7180;52.742;11.420;2023-03-01T04:15:38;102591.81;;;-5.35;100.00
8585;BME280;7180;52.742;11.420;2023-03-01T04:18:04;102595.84;;;-5.40;100.00
8585;BME280;7180;52.742;11.420;2023-03-01T04:20:32;102590.63;;;-5.43;100.00
8585;BME280;7180;52.742;11.420;2023-03-01T04:23:00;102605.19;;;-5.42;100.00
8585;BME280;7180;52.742;11.420;2023-03-01T04:25:45;102593.19;;;-5.43;100.00
8585;BME280;7180;52.742;11.420;2023-03-01T04:28:12;102597.50;;;-5.42;100.00
8585;BME280;7180;52.742;11.420;2023-03-01T04:30:38;102587.03;;;-5.48;100.00
8585;BME280;7180;52.742;11.420;2023-03-01T04:33:06;102595.63;;;-5.46;100.00
8585;BME280;7180;52.742;11.420;2023-03-01T04:35:31;102592.25;;;-5.45;100.00
8585;BME280;7180;52.742;11.420;2023-03-01T04:37:57;102590.47;;;-5.47;100.00
8585;BME280;7180;52.742;11.420;2023-03-01T04:40:22;102593.09;;;-5.46;100.00
8585;BME280;7180;52.742;11.420;2023-03-01T04:42:48;102584.44;;;-5.48;100.00
8585;BME280;7180;52.742;11.420;2023-03-01T04:45:13;102579.91;;;-5.55;100.00
8585;BME280;7180;52.742;11.420;2023-03-01T04:47:43;102571.88;;;-5.64;100.00
8585;BME280;7180;52.742;11.420;2023-03-01T04:50:10;102584.22;;;-5.54;100.00
8585;BME280;7180;52.742;11.420;2023-03-01T04:52:36;102590.03;;;-5.58;100.00
8585;BME280;7180;52.742;11.420;2023-03-01T04:55:02;102585.84;;;-5.56;100.00
8585;BME280;7180;52.742;11.420;2023-03-01T04:57:28;102590.28;;;-5.52;100.00
8585;BME280;7180;52.742;11.420;2023-03-01T04:59:54;102587.72;;;-5.52;100.00
8585;BME280;7180;52.742;11.420;2023-03-01T05:02:19;102591.22;;;-5.50;100.00
8585;BME280;7180;52.742;11.420;2023-03-01T05:04:44;102585.72;;;-5.59;100.00
8585;BME280;7180;52.742;11.420;2023-03-01T05:07:09;102594.47;;;-5.54;100.00
8585;BME280;7180;52.742;11.420;2023-03-01T05:09:35;102599.72;;;-5.51;100.00
8585;BME280;7180;52.742;11.420;2023-03-01T05:12:00;102601.41;;;-5.51;100.00
8585;BME280;7180;52.742;11.420;2023-03-01T05:14:25;102587.72;;;-5.52;100.00
8585;BME280;7180;52.742;11.420;2023-03-01T05:16:50;102576.47;;;-5.55;100.00
8585;BME280;7180;52.742;11.420;2023-03-01T05:19:16;102563.41;;;-5.61;100.00
8585;BME280;7180;52.742;11.420;2023-03-01T05:21:42;102583.53;;;-5.50;100.00
8585;BME280;7180;52.742;11.420;2023-03-01T05:24:27;102581.06;;;-5.47;100.00
8585;BME280;7180;52.742;11.420;2023-03-01T05:26:53;102583.47;;;-5.51;100.00
8585;BME280;7180;52.742;11.420;2023-03-01T05:29:20;102574.88;;;-5.52;100.00
8585;BME280;7180;52.742;11.420;2023-03-01T05:31:56;102581.00;;;-5.48;100.00
8585;BME280;7180;52.742;11.420;2023-03-01T05:34:31;102589.59;;;-5.48;100.00
8585;BME280;7180;52.742;11.420;2023-03-01T05:36:58;102583.53;;;-5.50;100.00
8585;BME280;7180;52.742;11.420;2023-03-01T05:39:25;102578.09;;;-5.57;100.00
8585;BME280;7180;52.742;11.420;2023-03-01T05:41:55;102582.47;;;-5.55;100.00
8585;BME280;7180;52.742;11.420;2023-03-01T05:44:20;102574.09;;;-5.51;100.00
8585;BME280;7180;52.742;11.420;2023-03-01T05:46:46;102585.25;;;-5.49;100.00
8585;BME280;7180;52.742;11.420;2023-03-01T05:49:12;102584.44;;;-5.48;100.00
8585;BME280;7180;52.742;11.420;2023-03-01T05:51:38;102582.59;;;-5.52;100.00
8585;BME280;7180;52.742;11.420;2023-03-01T05:54:04;102591.25;;;-5.48;100.00
8585;BME280;7180;52.742;11.420;2023-03-01T05:56:33;102586.19;;;-5.47;100.00
8585;BME280;7180;52.742;11.420;2023-03-01T05:58:59;102585.34;;;-5.47;100.00
8585;BME280;7180;52.742;11.420;2023-03-01T06:01:24;102592.31;;;-5.43;100.00
8585;BME280;7180;52.742;11.420;2023-03-01T06:03:49;102594.94;;;-5.42;100.00
8585;BME280;7180;52.742;11.420;2023-03-01T06:06:14;102604.38;;;-5.41;100.00
8585;BME280;7180;52.742;11.420;2023-03-01T06:08:40;102596.69;;;-5.41;100.00
8585;BME280;7180;52.742;11.420;2023-03-01T06:11:05;102591.56;;;-5.41;100.00
8585;BME280;7180;52.742;11.420;2023-03-01T06:13:32;102585.59;;;-5.40;100.00
8585;BME280;7180;52.742;11.420;2023-03-01T06:15:57;102586.44;;;-5.41;100.00
8585;BME280;7180;52.742;11.420;2023-03-01T06:18:22;102577.56;;;-5.49;100.00
8585;BME280;7180;52.742;11.420;2023-03-01T06:20:55;102583.16;;;-5.37;100.00
8585;BME280;7180;52.742;11.420;2023-03-01T06:23:21;102579.03;;;-5.33;100.00
8585;BME280;7180;52.742;11.420;2023-03-01T06:25:47;102582.47;;;-5.33;100.00
8585;BME280;7180;52.742;11.420;2023-03-01T06:28:12;102576.41;;;-5.35;100.00
8585;BME280;7180;52.742;11.420;2023-03-01T06:30:37;102573.72;;;-5.38;100.00
8585;BME280;7180;52.742;11.420;2023-03-01T06:33:02;102570.34;;;-5.37;100.00
8585;BME280;7180;52.742;11.420;2023-03-01T06:35:29;102571.38;;;-5.32;100.00
8585;BME280;7180;52.742;11.420;2023-03-01T06:37:57;102579.22;;;-5.27;100.00
8585;BME280;7180;52.742;11.420;2023-03-01T06:40:23;102576.97;;;-5.19;100.00
8585;BME280;7180;52.742;11.420;2023-03-01T06:42:49;102586.63;;;-5.12;100.00
8585;BME280;7180;52.742;11.420;2023-03-01T06:45:15;102586.91;;;-5.05;100.00
8585;BME280;7180;52.742;11.420;2023-03-01T06:47:41;102574.03;;;-5.06;100.00
8585;BME280;7180;52.742;11.420;2023-03-01T06:50:07;102583.00;;;-4.95;100.00
8585;BME280;7180;52.742;11.420;2023-03-01T06:52:32;102584.81;;;-4.93;100.00
8585;BME280;7180;52.742;11.420;2023-03-01T06:54:58;102593.56;;;-4.86;100.00
8585;BME280;7180;52.742;11.420;2023-03-01T06:57:23;102593.03;;;-4.78;100.00
8585;BME280;7180;52.742;11.420;2023-03-01T06:59:49;102592.59;;;-4.66;100.00
8585;BME280;7180;52.742;11.420;2023-03-01T07:02:15;102590.22;;;-4.60;100.00
8585;BME280;7180;52.742;11.420;2023-03-01T07:04:41;102588.78;;;-4.52;100.00
8585;BME280;7180;52.742;11.420;2023-03-01T07:07:07;102588.41;;;-4.39;100.00
8585;BME280;7180;52.742;11.420;2023-03-01T07:09:32;102590.34;;;-4.32;100.00
8585;BME280;7180;52.742;11.420;2023-03-01T07:11:58;102585.44;;;-4.26;100.00
8585;BME280;7180;52.742;11.420;2023-03-01T07:14:23;102579.50;;;-4.24;100.00
8585;BME280;7180;52.742;11.420;2023-03-01T07:16:52;102580.69;;;-4.14;100.00
8585;BME280;7180;52.742;11.420;2023-03-01T07:19:18;102574.06;;;-4.06;100.00
8585;BME280;7180;52.742;11.420;2023-03-01T07:21:44;102568.31;;;-3.99;100.00
8585;BME280;7180;52.742;11.420;2023-03-01T07:24:09;102561.63;;;-3.94;100.00
8585;BME280;7180;52.742;11.420;2023-03-01T07:26:35;102568.84;;;-3.82;100.00
8585;BME280;7180;52.742;11.420;2023-03-01T07:29:01;102564.78;;;-3.76;100.00
8585;BME280;7180;52.742;11.420;2023-03-01T07:31:27;102554.78;;;-3.67;100.00
8585;BME280;7180;52.742;11.420;2023-03-01T07:33:54;102562.81;;;-3.56;100.00
8585;BME280;7180;52.742;11.420;2023-03-01T07:36:19;102544.09;;;-3.52;100.00
8585;BME280;7180;52.742;11.420;2023-03-01T07:38:44;102546.78;;;-3.48;100.00
8585;BME280;7180;52.742;11.420;2023-03-01T07:41:10;102549.63;;;-3.39;100.00
8585;BME280;7180;52.742;11.420;2023-03-01T07:43:35;102550.59;;;-3.34;100.00
8585;BME280;7180;52.742;11.420;2023-03-01T07:46:02;102563.00;;;-3.21;100.00
8585;BME280;7180;52.742;11.420;2023-03-01T07:48:28;102565.88;;;-3.10;100.00
8585;BME280;7180;52.742;11.420;2023-03-01T07:50:57;102571.31;;;-2.99;100.00
8585;BME280;7180;52.742;11.420;2023-03-01T07:53:23;102571.47;;;-2.95;100.00
8585;BME280;7180;52.742;11.420;2023-03-01T07:55:48;102576.06;;;-2.83;100.00
8585;BME280;7180;52.742;11.420;2023-03-01T07:58:14;102581.44;;;-2.74;100.00
8585;BME280;7180;52.742;11.420;2023-03-01T08:00:39;102583.38;;;-2.67;100.00
8585;BME280;7180;52.742;11.420;2023-03-01T08:03:04;102573.22;;;-2.61;100.00
8585;BME280;7180;52.742;11.420;2023-03-01T08:05:29;102584.72;;;-2.49;100.00
8585;BME280;7180;52.742;11.420;2023-03-01T08:07:55;102588.38;;;-2.41;100.00
8585;BME280;7180;52.742;11.420;2023-03-01T08:10:20;102587.75;;;-2.32;100.00
8585;BME280;7180;52.742;11.420;2023-03-01T08:12:45;102583.69;;;-2.23;100.00
8585;BME280;7180;52.742;11.420;2023-03-01T08:15:11;102589.97;;;-2.13;100.00
8585;BME280;7180;52.742;11.420;2023-03-01T08:17:36;102589.59;;;-1.92;100.00
8585;BME280;7180;52.742;11.420;2023-03-01T08:20:02;102589.97;;;-1.77;100.00
8585;BME280;7180;52.742;11.420;2023-03-01T08:22:29;102577.25;;;-1.70;100.00
8585;BME280;7180;52.742;11.420;2023-03-01T08:24:54;102573.81;;;-1.69;100.00
8585;BME280;7180;52.742;11.420;2023-03-01T08:27:20;102580.28;;;-1.50;100.00
8585;BME280;7180;52.742;11.420;2023-03-01T08:29:46;102566.66;;;-1.43;100.00
8585;BME280;7180;52.742;11.420;2023-03-01T08:32:11;102569.59;;;-1.27;100.00
8585;BME280;7180;52.742;11.420;2023-03-01T08:34:36;102545.53;;;-1.26;100.00
8585;BME280;7180;52.742;11.420;2023-03-01T08:37:01;102550.16;;;-1.10;100.00
8585;BME280;7180;52.742;11.420;2023-03-01T08:39:27;102513.84;;;-1.17;100.00
8585;BME280;7180;52.742;11.420;2023-03-01T08:41:52;102491.47;;;-1.18;100.00
8585;BME280;7180;52.742;11.420;2023-03-01T08:44:18;102485.59;;;-1.11;100.00
8585;BME280;7180;52.742;11.420;2023-03-01T08:46:44;102471.75;;;-1.16;100.00
8585;BME280;7180;52.742;11.420;2023-03-01T08:49:17;102482.72;;;-0.81;100.00
8585;BME280;7180;52.742;11.420;2023-03-01T08:51:43;102486.44;;;-0.64;100.00
8585;BME280;7180;52.742;11.420;2023-03-01T08:54:14;102451.22;;;-0.59;100.00
8585;BME280;7180;52.742;11.420;2023-03-01T08:56:40;102425.28;;;-0.67;100.00
8585;BME280;7180;52.742;11.420;2023-03-01T08:59:06;102412.31;;;-0.68;100.00
8585;BME280;7180;52.742;11.420;2023-03-01T09:01:31;102395.13;;;-0.66;100.00
8585;BME280;7180;52.742;11.420;2023-03-01T09:03:56;102397.03;;;-0.56;100.00
8585;BME280;7180;52.742;11.420;2023-03-01T09:06:22;102408.56;;;-0.33;100.00
8585;BME280;7180;52.742;11.420;2023-03-01T09:08:48;102357.59;;;-0.43;100.00
8585;BME280;7180;52.742;11.420;2023-03-01T09:11:21;102330.78;;;-0.50;100.00
8585;BME280;7180;52.742;11.420;2023-03-01T09:13:47;102332.56;;;-0.47;100.00
8585;BME280;7180;52.742;11.420;2023-03-01T09:16:15;102343.97;;;-0.33;100.00
8585;BME280;7180;52.742;11.420;2023-03-01T09:18:40;102353.56;;;-0.22;100.00
8585;BME280;7180;52.742;11.420;2023-03-01T09:21:08;102348.50;;;-0.14;100.00
8585;BME280;7180;52.742;11.420;2023-03-01T09:23:35;102344.47;;;0.08;100.00
8585;BME280;7180;52.742;11.420;2023-03-01T09:26:02;102313.41;;;0.03;100.00
8585;BME280;7180;52.742;11.420;2023-03-01T09:28:27;102295.41;;;0.14;100.00
8585;BME280;7180;52.742;11.420;2023-03-01T09:30:52;102265.28;;;0.20;100.00
8585;BME280;7180;52.742;11.420;2023-03-01T09:33:18;102283.03;;;0.72;100.00
8585;BME280;7180;52.742;11.420;2023-03-01T09:35:43;102218.50;;;0.99;100.00
8585;BME280;7180;52.742;11.420;2023-03-01T09:38:13;102123.53;;;1.00;100.00
8585;BME280;7180;52.742;11.420;2023-03-01T09:40:43;102034.69;;;1.22;99.79
8585;BME280;7180;52.742;11.420;2023-03-01T09:43:27;101926.75;;;1.51;98.13
8585;BME280;7180;52.742;11.420;2023-03-01T09:45:59;101822.19;;;1.51;96.84
8585;BME280;7180;52.742;11.420;2023-03-01T09:48:27;101721.91;;;1.65;95.53
8585;BME280;7180;52.742;11.420;2023-03-01T09:50:56;101625.13;;;1.63;94.69
8585;BME280;7180;52.742;11.420;2023-03-01T09:53:28;101544.06;;;1.40;93.78
8585;BME280;7180;52.742;11.420;2023-03-01T09:56:00;101554.38;;;1.50;93.91
8585;BME280;7180;52.742;11.420;2023-03-01T10:01:27;101471.19;;;1.82;92.17
8585;BME280;7180;52.742;11.420;2023-03-01T10:04:19;101333.75;;;1.82;90.90
8585;BME280;7180;52.742;11.420;2023-03-01T10:09:36;101280.19;;;1.79;89.96
8585;BME280;7180;52.742;11.420;2023-03-01T10:12:06;101287.84;;;1.90;89.67
8585;BME280;7180;52.742;11.420;2023-03-01T10:14:56;101238.34;;;2.06;88.89
8585;BME280;7180;52.742;11.420;2023-03-01T10:17:48;101149.00;;;2.27;88.30
8585;BME280;7180;52.742;11.420;2023-03-01T10:20:22;101104.53;;;2.47;87.12
8585;BME280;7180;52.742;11.420;2023-03-01T10:22:48;101047.06;;;2.66;86.65
8585;BME280;7180;52.742;11.420;2023-03-01T10:28:16;100766.16;;;2.52;84.49
8585;BME280;7180;52.742;11.420;2023-03-01T10:30:42;100776.16;;;2.67;84.11
8585;BME280;7180;52.742;11.420;2023-03-01T10:33:22;100756.25;;;2.68;84.32
8585;BME280;7180;52.742;11.420;2023-03-01T10:35:48;100730.84;;;2.80;83.86
8585;BME280;7180;52.742;11.420;2023-03-01T10:38:15;100568.44;;;3.01;82.03
8585;BME280;7180;52.742;11.420;2023-03-01T10:43:20;100290.19;;;3.11;80.32
8585;BME280;7180;52.742;11.420;2023-03-01T10:45:46;100200.38;;;3.04;79.51
8585;BME280;7180;52.742;11.420;2023-03-01T10:48:16;100150.91;;;3.07;79.14
8585;BME280;7180;52.742;11.420;2023-03-01T10:50:45;100095.19;;;3.16;78.31
8585;BME280;7180;52.742;11.420;2023-03-01T10:53:28;99988.44;;;3.45;77.20
8585;BME280;7180;52.742;11.420;2023-03-01T10:56:01;99691.94;;;3.31;75.77
8585;BME280;7180;52.742;11.420;2023-03-01T10:58:29;99770.47;;;3.38;75.85
8585;BME280;7180;52.742;11.420;2023-03-01T11:00:57;99917.00;;;3.55;76.08
8585;BME280;7180;52.742;11.420;2023-03-01T11:11:29;99494.00;;;3.60;73.52
8585;BME280;7180;52.742;11.420;2023-03-01T11:13:54;99176.75;;;3.63;71.60
8585;BME280;7180;52.742;11.420;2023-03-01T11:16:40;99218.72;;;3.73;72.05
8585;BME280;7180;52.742;11.420;2023-03-01T11:21:36;99218.81;;;3.87;71.40
8585;BME280;7180;52.742;11.420;2023-03-01T11:24:06;99218.88;;;4.02;70.88
8585;BME280;7180;52.742;11.420;2023-03-01T11:26:39;99193.09;;;3.98;70.99
8585;BME280;7180;52.742;11.420;2023-03-01T11:29:12;99133.03;;;3.87;70.58
8585;BME280;7180;52.742;11.420;2023-03-01T11:31:42;99048.81;;;3.74;70.33
8585;BME280;7180;52.742;11.420;2023-03-01T11:34:13;98907.34;;;3.64;70.13
8585;BME280;7180;52.742;11.420;2023-03-01T11:39:17;99112.47;;;3.67;71.21
8585;BME280;7180;52.742;11.420;2023-03-01T11:41:48;99158.16;;;3.55;71.02
8585;BME280;7180;52.742;11.420;2023-03-01T11:44:24;99371.16;;;3.91;71.75
8585;BME280;7180;52.742;11.420;2023-03-01T11:52:38;99049.00;;;4.02;69.75
8585;BME280;7180;52.742;11.420;2023-03-01T11:55:26;98849.88;;;3.98;68.88
8585;BME280;7180;52.742;11.420;2023-03-01T12:00:44;98742.44;;;4.11;68.80
8585;BME280;7180;52.742;11.420;2023-03-01T12:04:27;98874.06;;;4.42;68.60
8585;BME280;7180;52.742;11.420;2023-03-01T12:06:35;98667.53;;;4.57;67.60
8585;BME280;7180;52.742;11.420;2023-03-01T12:09:38;98343.72;;;4.36;66.37
8585;BME280;7180;52.742;11.420;2023-03-01T12:12:27;98456.44;;;4.37;66.48
8585;BME280;7180;52.742;11.420;2023-03-01T12:15:04;98269.31;;;4.34;65.34
8585;BME280;7180;52.742;11.420;2023-03-01T12:17:42;98050.50;;;4.38;64.31
8585;BME280;7180;52.742;11.420;2023-03-01T12:23:24;97851.41;;;4.45;63.02
8585;BME280;7180;52.742;11.420;2023-03-01T12:37:48;97236.25;;;4.79;58.84
8585;BME280;7180;52.742;11.420;2023-03-01T12:42:58;97454.34;;;4.85;59.94
8585;BME280;7180;52.742;11.420;2023-03-01T12:45:50;97431.25;;;4.71;60.24
8585;BME280;7180;52.742;11.420;2023-03-01T12:48:42;97463.09;;;4.84;59.72
8585;BME280;7180;52.742;11.420;2023-03-01T12:51:14;97267.19;;;4.63;59.31
8585;BME280;7180;52.742;11.420;2023-03-01T12:53:45;97370.50;;;4.82;59.71
8585;BME280;7180;52.742;11.420;2023-03-01T12:56:15;97369.94;;;4.78;60.03
8585;BME280;7180;52.742;11.420;2023-03-01T12:59:03;97321.72;;;4.74;59.77
8585;BME280;7180;52.742;11.420;2023-03-01T13:01:41;97266.75;;;4.58;60.11
8585;BME280;7180;52.742;11.420;2023-03-01T13:12:44;97337.94;;;4.57;60.82
8585;BME280;7180;52.742;11.420;2023-03-01T13:17:48;97483.03;;;4.74;61.14
8585;BME280;7180;52.742;11.420;2023-03-01T13:20:19;97373.72;;;4.35;61.68
8585;BME280;7180;52.742;11.420;2023-03-01T13:22:46;97257.81;;;4.42;60.51
8585;BME280;7180;52.742;11.420;2023-03-01T13:25:19;97149.78;;;4.38;60.19
8585;BME280;7180;52.742;11.420;2023-03-01T13:27:45;97244.47;;;4.84;59.52
8585;BME280;7180;52.742;11.420;2023-03-01T13:35:48;96944.28;;;4.66;59.30
8585;BME280;7180;52.742;11.420;2023-03-01T13:44:12;97323.16;;;4.28;62.12
8585;BME280;7180;52.742;11.420;2023-03-01T13:46:44;97383.03;;;4.16;62.31
8585;BME280;7180;52.742;11.420;2023-03-01T13:49:14;97514.88;;;4.26;63.05
8585;BME280;7180;52.742;11.420;2023-03-01T13:51:41;97693.63;;;4.55;62.71
8585;BME280;7180;52.742;11.420;2023-03-01T13:54:11;97679.25;;;4.83;62.44
8585;BME280;7180;52.742;11.420;2023-03-01T13:56:37;97489.66;;;4.78;61.81
8585;BME280;7180;52.742;11.420;2023-03-01T13:59:15;97502.88;;;4.96;61.75
8585;BME280;7180;52.742;11.420;2023-03-01T14:01:40;97351.59;;;4.89;61.20
8585;BME280;7180;52.742;11.420;2023-03-01T14:04:27;97298.53;;;4.71;61.29
8585;BME280;7180;52.742;11.420;2023-03-01T14:07:12;97347.97;;;4.71;61.78
8585;BME280;7180;52.742;11.420;2023-03-01T14:09:41;97465.91;;;5.02;61.68
8585;BME280;7180;52.742;11.420;2023-03-01T14:12:21;97340.44;;;5.17;60.57
8585;BME280;7180;52.742;11.420;2023-03-01T14:14:52;97202.03;;;5.12;59.94
8585;BME280;7180;52.742;11.420;2023-03-01T14:20:14;97179.28;;;4.76;61.14
8585;BME280;7180;52.742;11.420;2023-03-01T14:22:41;97168.59;;;4.60;61.67
8585;BME280;7180;52.742;11.420;2023-03-01T14:28:00;97333.38;;;4.80;61.81
8585;BME280;7180;52.742;11.420;2023-03-01T14:30:38;97356.53;;;4.83;62.01